createdAt,value
2019-05-14T00:00:21.626Z,91.49
2019-05-14T00:02:54.734Z,91.50
2019-05-14T00:05:27.642Z,91.56
2019-05-14T00:08:02.339Z,91.60
2019-05-14T00:10:35.377Z,91.33
2019-05-14T00:13:08.262Z,91.45
2019-05-14T00:15:41.542Z,91.82
2019-05-14T00:18:14.809Z,91.94
2019-05-14T00:20:47.708Z,92.52
2019-05-14T00:23:21.558Z,91.99
2019-05-14T00:25:54.635Z,92.33
2019-05-14T00:28:27.519Z,92.43
2019-05-14T00:31:02.629Z,92.43
2019-05-14T00:33:35.008Z,93.19
2019-05-14T00:36:08.142Z,93.25
2019-05-14T00:38:42.029Z,93.28
2019-05-14T00:41:14.956Z,93.28
2019-05-14T00:43:47.803Z,93.37
2019-05-14T00:46:21.244Z,93.37
2019-05-14T00:48:54.228Z,93.37
2019-05-14T00:51:27.471Z,93.62
2019-05-14T00:54:01.685Z,93.18
2019-05-14T00:56:34.648Z,92.72
2019-05-14T00:59:08.335Z,92.49
2019-05-14T01:01:42.511Z,92.57
2019-05-14T01:04:15.618Z,92.95
2019-05-14T01:06:50.982Z,92.95
2019-05-14T01:09:23.232Z,93.25
2019-05-14T01:11:56.055Z,93.20
2019-05-14T01:14:28.896Z,93.15
2019-05-14T01:17:02.182Z,93.76
2019-05-14T01:19:35.184Z,93.76
2019-05-14T01:22:08.012Z,93.64
2019-05-14T01:24:41.757Z,93.90
2019-05-14T01:27:14.755Z,93.86
2019-05-14T01:29:47.619Z,93.86
2019-05-14T01:32:22.120Z,94.13
2019-05-14T01:34:54.977Z,94.17
2019-05-14T01:37:27.810Z,94.08
2019-05-14T01:40:01.152Z,94.31
2019-05-14T01:42:34.256Z,93.95
2019-05-14T01:45:20.229Z,93.95
2019-05-14T01:47:41.817Z,93.97
2019-05-14T01:50:14.707Z,93.88
2019-05-14T01:52:47.599Z,93.85
2019-05-14T01:55:21.945Z,94.22
2019-05-14T01:57:55.505Z,94.33
2019-05-14T02:00:28.439Z,94.84
2019-05-14T02:03:01.978Z,94.75
2019-05-14T02:05:34.852Z,94.75
2019-05-14T02:08:07.704Z,94.90
2019-05-14T02:10:41.948Z,95.11
2019-05-14T02:13:14.991Z,94.95
2019-05-14T02:15:47.832Z,95.24
2019-05-14T02:18:21.718Z,95.35
2019-05-14T02:20:54.727Z,95.16
2019-05-14T02:23:27.851Z,95.15
2019-05-14T02:26:02.503Z,95.27
2019-05-14T02:28:35.307Z,95.27
2019-05-14T02:31:09.421Z,94.85
2019-05-14T02:33:42.514Z,94.85
2019-05-14T02:36:19.234Z,94.99
2019-05-14T02:38:51.019Z,94.62
2019-05-14T02:41:24.003Z,94.99
2019-05-14T02:43:59.383Z,95.15
2019-05-14T02:46:31.544Z,94.70
2019-05-14T02:49:04.557Z,95.31
2019-05-14T02:51:39.149Z,95.31
2019-05-14T02:54:12.190Z,95.29
2019-05-14T02:56:45.351Z,95.86
2019-05-14T02:59:19.617Z,95.89
2019-05-14T03:01:52.738Z,95.83
2019-05-14T03:04:25.900Z,95.88
2019-05-14T03:06:59.369Z,96.01
2019-05-14T03:09:32.560Z,95.86
2019-05-14T03:12:05.646Z,95.86
2019-05-14T03:14:39.754Z,95.69
2019-05-14T03:17:13.061Z,95.81
2019-05-14T03:19:49.325Z,95.90
2019-05-14T03:22:25.873Z,95.67
2019-05-14T03:24:55.625Z,95.76
2019-05-14T03:27:30.386Z,95.51
2019-05-14T03:30:04.013Z,95.56
2019-05-14T03:32:41.717Z,95.71
2019-05-14T03:35:13.964Z,95.94
2019-05-14T03:37:49.367Z,95.93
2019-05-14T03:40:21.316Z,95.93
2019-05-14T03:42:54.521Z,95.91
2019-05-14T03:45:29.991Z,95.91
2019-05-14T03:48:02.158Z,96.31
2019-05-14T03:50:35.092Z,96.01
2019-05-14T03:53:10.097Z,95.95
2019-05-14T03:55:43.214Z,95.95
2019-05-14T03:58:20.663Z,96.31
2019-05-14T04:01:00.008Z,96.30
2019-05-14T04:03:31.534Z,96.82
2019-05-14T04:06:05.126Z,96.65
2019-05-14T04:08:40.223Z,96.74
2019-05-14T04:11:15.732Z,96.74
2019-05-14T04:13:51.672Z,97.04
2019-05-14T04:16:29.176Z,97.04
2019-05-14T04:19:02.391Z,96.43
2019-05-14T04:21:39.811Z,96.63
2019-05-14T04:24:13.531Z,96.63
2019-05-14T04:27:01.035Z,96.74
2019-05-14T04:29:25.837Z,96.74
2019-05-14T04:32:00.144Z,96.56
2019-05-14T04:34:33.534Z,96.46
2019-05-14T04:37:09.725Z,96.50
2019-05-14T04:39:41.698Z,96.50
2019-05-14T04:42:14.620Z,96.36
2019-05-14T04:44:50.209Z,96.26
2019-05-14T04:47:32.283Z,96.40
2019-05-14T04:49:59.119Z,96.79
2019-05-14T04:52:32.233Z,96.79
2019-05-14T04:55:05.440Z,96.65
2019-05-14T04:57:39.237Z,96.89
2019-05-14T05:00:12.946Z,97.05
2019-05-14T05:02:45.930Z,97.05
2019-05-14T05:05:19.616Z,96.90
2019-05-14T05:07:52.611Z,97.39
2019-05-14T05:10:25.571Z,97.25
2019-05-14T05:12:58.743Z,97.22
2019-05-14T05:15:31.895Z,97.33
2019-05-14T05:18:04.919Z,97.33
2019-05-14T05:20:39.340Z,97.03
2019-05-14T05:23:12.476Z,96.85
2019-05-14T05:25:45.323Z,96.85
2019-05-14T05:28:19.046Z,96.74
2019-05-14T05:30:51.984Z,96.85
2019-05-14T05:35:59.326Z,96.83
2019-05-14T05:38:32.036Z,96.83
2019-05-14T05:41:05.139Z,96.64
2019-05-14T05:43:39.353Z,96.13
2019-05-14T05:46:12.383Z,96.13
2019-05-14T05:48:45.313Z,95.26
2019-05-14T05:51:18.957Z,94.44
2019-05-14T05:53:51.959Z,94.12
2019-05-14T05:56:24.802Z,94.12
2019-05-14T05:58:57.652Z,94.14
2019-05-14T06:01:41.698Z,93.45
2019-05-14T06:04:05.188Z,93.45
2019-05-14T06:06:39.012Z,92.40
2019-05-14T06:09:12.131Z,92.40
2019-05-14T06:11:44.988Z,90.21
2019-05-14T06:14:18.616Z,90.22
2019-05-14T06:16:51.931Z,90.22
2019-05-14T06:19:25.233Z,89.85
2019-05-14T06:21:59.627Z,88.97
2019-05-14T06:24:32.774Z,88.96
2019-05-14T06:27:05.715Z,89.03
2019-05-14T06:29:38.591Z,88.49
2019-05-14T06:32:11.459Z,88.16
2019-05-14T06:34:44.332Z,86.53
2019-05-14T06:37:19.218Z,87.30
2019-05-14T06:39:51.833Z,85.83
2019-05-14T06:42:24.935Z,85.83
2019-05-14T06:44:58.611Z,84.61
2019-05-14T06:47:31.731Z,84.61
2019-05-14T06:50:04.947Z,83.36
2019-05-14T06:52:38.896Z,83.36
2019-05-14T06:55:12.509Z,82.99
2019-05-14T06:57:47.869Z,80.98
2019-05-14T07:00:20.412Z,80.98
2019-05-14T07:02:53.585Z,80.96
2019-05-14T07:05:28.144Z,79.81
2019-05-14T07:08:01.320Z,79.81
2019-05-14T07:10:34.460Z,80.06
2019-05-14T07:13:08.583Z,76.95
2019-05-14T07:15:41.561Z,77.59
2019-05-14T07:18:14.432Z,76.50
2019-05-14T07:20:48.562Z,76.23
2019-05-14T07:23:21.926Z,76.23
2019-05-14T07:25:54.881Z,74.23
2019-05-14T07:28:28.832Z,74.23
2019-05-14T07:31:02.048Z,73.94
2019-05-14T07:33:35.195Z,74.10
2019-05-14T07:36:08.890Z,68.28
2019-05-14T07:38:41.960Z,68.28
2019-05-14T07:41:14.833Z,67.74
2019-05-14T07:43:48.433Z,69.35
2019-05-14T07:46:21.373Z,69.35
2019-05-14T07:49:07.234Z,66.75
2019-05-14T07:51:28.805Z,66.75
2019-05-14T07:54:01.665Z,64.97
2019-05-14T07:56:34.532Z,64.03
2019-05-14T07:59:08.938Z,63.09
2019-05-14T08:01:41.905Z,62.42
2019-05-14T08:04:17.858Z,62.42
2019-05-14T08:06:49.687Z,60.37
2019-05-14T08:09:22.597Z,55.06
2019-05-14T08:11:55.440Z,48.77
2019-05-14T08:14:29.490Z,41.78
2019-05-14T08:17:03.025Z,41.17
2019-05-14T08:19:38.347Z,41.17
2019-05-14T08:22:10.573Z,41.77
2019-05-14T08:24:43.501Z,40.67
2019-05-14T08:27:16.410Z,40.63
2019-05-14T08:29:49.264Z,38.34
2019-05-14T08:32:22.444Z,36.25
2019-05-14T08:34:55.882Z,34.59
2019-05-14T08:37:28.716Z,35.26
2019-05-14T08:40:01.611Z,32.21
2019-05-14T08:42:35.259Z,34.63
2019-05-14T08:45:10.527Z,34.63
2019-05-14T08:47:43.553Z,37.31
2019-05-14T08:50:18.689Z,38.32
2019-05-14T08:52:51.684Z,45.83
2019-05-14T08:55:24.687Z,45.83
2019-05-14T08:57:59.278Z,42.05
2019-05-14T09:00:32.516Z,39.79
2019-05-14T09:03:05.431Z,36.09
2019-05-14T09:05:38.757Z,36.09
2019-05-14T09:08:11.696Z,34.46
2019-05-14T09:10:44.546Z,32.69
2019-05-14T09:13:18.473Z,28.99
2019-05-14T09:15:51.844Z,28.99
2019-05-14T09:18:24.927Z,28.76
2019-05-14T09:20:58.360Z,27.52
2019-05-14T09:23:31.213Z,26.58
2019-05-14T09:26:04.144Z,26.58
2019-05-14T09:28:39.217Z,26.71
2019-05-14T09:31:11.813Z,27.09
2019-05-14T09:33:44.743Z,27.09
2019-05-14T09:36:20.457Z,25.31
2019-05-14T09:38:52.525Z,24.34
2019-05-14T09:41:27.805Z,24.34
2019-05-14T09:43:59.954Z,25.42
2019-05-14T09:46:33.018Z,26.75
2019-05-14T09:49:07.903Z,29.08
2019-05-14T09:51:40.700Z,25.75
2019-05-14T09:54:13.553Z,25.33
2019-05-14T09:56:48.578Z,25.33
2019-05-14T09:59:21.032Z,24.73
2019-05-14T10:01:53.900Z,24.26
2019-05-14T10:04:26.740Z,23.91
2019-05-14T10:06:59.594Z,23.75
2019-05-14T10:09:32.439Z,23.35
2019-05-14T10:12:05.375Z,26.03
2019-05-14T10:14:39.242Z,26.03
2019-05-14T10:17:12.454Z,25.38
2019-05-14T10:19:45.288Z,26.37
2019-05-14T10:22:19.759Z,24.52
2019-05-14T10:24:52.818Z,24.52
2019-05-14T10:27:28.255Z,23.76
2019-05-14T10:30:00.222Z,23.65
2019-05-14T10:32:33.092Z,23.65
2019-05-14T10:35:08.394Z,24.72
2019-05-14T10:37:40.775Z,24.52
2019-05-14T10:40:13.952Z,25.26
2019-05-14T10:42:49.261Z,23.38
2019-05-14T10:45:21.519Z,23.38
2019-05-14T10:47:54.464Z,22.06
2019-05-14T10:50:28.978Z,23.00
2019-05-14T10:53:01.929Z,24.26
2019-05-14T10:55:34.731Z,25.55
2019-05-14T10:58:08.880Z,24.48
2019-05-14T11:00:42.198Z,24.48
2019-05-14T11:03:15.024Z,23.36
2019-05-14T11:05:48.279Z,23.36
2019-05-14T11:08:21.522Z,24.51
2019-05-14T11:10:54.380Z,24.51
2019-05-14T11:13:29.227Z,24.74
2019-05-14T11:16:01.944Z,24.06
2019-05-14T11:18:34.774Z,26.18
2019-05-14T11:21:19.871Z,26.18
2019-05-14T11:23:42.497Z,23.59
2019-05-14T11:26:18.238Z,23.96
2019-05-14T11:28:50.209Z,23.96
2019-05-14T11:31:23.136Z,22.65
2019-05-14T11:33:58.861Z,23.50
2019-05-14T11:36:30.696Z,22.59
2019-05-14T11:39:05.615Z,23.10
2019-05-14T11:41:39.066Z,22.65
2019-05-14T11:44:12.032Z,23.31
2019-05-14T11:46:52.283Z,28.69
2019-05-14T11:49:19.718Z,27.54
2019-05-14T11:52:04.238Z,27.54
2019-05-14T11:54:29.172Z,27.96
2019-05-14T11:57:01.955Z,23.59
2019-05-14T11:59:34.802Z,23.83
2019-05-14T12:02:09.654Z,24.26
2019-05-14T12:04:42.294Z,25.14
2019-05-14T12:07:15.107Z,26.32
2019-05-14T12:09:48.554Z,25.68
2019-05-14T12:12:21.373Z,25.53
2019-05-14T12:14:54.580Z,24.67
2019-05-14T12:17:29.548Z,24.18
2019-05-14T12:20:02.276Z,26.42
2019-05-14T12:22:35.155Z,25.85
2019-05-14T12:25:08.354Z,21.89
2019-05-14T12:27:41.168Z,21.89
2019-05-14T12:30:14.807Z,23.47
2019-05-14T12:32:50.060Z,24.64
2019-05-14T12:35:22.613Z,24.64
2019-05-14T12:37:55.464Z,27.53
2019-05-14T12:40:28.901Z,24.95
2019-05-14T12:43:01.958Z,23.66
2019-05-14T12:45:34.789Z,25.14
2019-05-14T12:48:09.343Z,26.57
2019-05-14T12:50:42.615Z,24.42
2019-05-14T12:53:15.521Z,23.50
2019-05-14T12:55:48.766Z,23.50
2019-05-14T12:58:21.801Z,25.89
2019-05-14T13:00:54.713Z,23.54
2019-05-14T13:03:28.477Z,22.92
2019-05-14T13:06:01.472Z,23.23
2019-05-14T13:08:34.292Z,23.79
2019-05-14T13:11:09.708Z,23.33
2019-05-14T13:13:42.907Z,22.51
2019-05-14T13:16:18.736Z,23.43
2019-05-14T13:18:51.119Z,25.75
2019-05-14T13:21:24.265Z,24.97
2019-05-14T13:23:57.166Z,26.46
2019-05-14T13:26:30.026Z,24.36
2019-05-14T13:29:07.056Z,24.36
2019-05-14T13:31:37.797Z,24.36
2019-05-14T13:34:10.782Z,23.74
2019-05-14T13:36:44.983Z,25.65
2019-05-14T13:39:19.409Z,24.74
2019-05-14T13:41:52.742Z,23.52
2019-05-14T13:44:25.573Z,23.89
2019-05-14T13:46:59.537Z,23.92
2019-05-14T13:49:32.605Z,24.30
2019-05-14T13:52:05.469Z,26.52
2019-05-14T13:54:39.334Z,25.19
2019-05-14T13:57:12.506Z,27.61
2019-05-14T13:59:45.347Z,26.87
2019-05-14T14:02:19.049Z,25.72
2019-05-14T14:04:51.978Z,27.23
2019-05-14T14:07:24.822Z,25.78
2019-05-14T14:09:59.087Z,27.62
2019-05-14T14:12:32.568Z,26.42
2019-05-14T14:15:09.205Z,29.15
2019-05-14T14:17:40.966Z,30.02
2019-05-14T14:20:14.261Z,29.50
2019-05-14T14:22:49.051Z,29.21
2019-05-14T14:25:22.099Z,31.16
2019-05-14T14:27:55.300Z,31.16
2019-05-14T14:30:28.628Z,31.39
2019-05-14T14:33:01.561Z,30.16
2019-05-14T14:35:35.104Z,30.29
2019-05-14T14:38:08.707Z,31.34
2019-05-14T14:40:41.762Z,31.19
2019-05-14T14:43:14.585Z,32.30
2019-05-14T14:45:50.519Z,33.22
2019-05-14T14:48:22.318Z,33.44
2019-05-14T14:50:55.163Z,33.44
2019-05-14T14:53:45.954Z,33.40
2019-05-14T14:56:03.069Z,35.03
2019-05-14T14:58:39.003Z,35.60
2019-05-14T15:01:11.382Z,34.55
2019-05-14T15:03:44.386Z,34.55
2019-05-14T15:06:17.427Z,35.88
2019-05-14T15:08:50.262Z,35.13
2019-05-14T15:11:23.113Z,36.66
2019-05-14T15:13:55.936Z,36.85
2019-05-14T15:16:30.528Z,36.85
2019-05-14T15:19:03.681Z,36.44
2019-05-14T15:21:36.525Z,35.64
2019-05-14T15:24:14.882Z,36.85
2019-05-14T15:26:44.001Z,35.53
2019-05-14T15:29:18.645Z,36.59
2019-05-14T15:31:51.414Z,35.83
2019-05-14T15:34:24.246Z,35.82
2019-05-14T15:36:59.876Z,37.29
2019-05-14T15:39:32.313Z,36.34
2019-05-14T15:42:06.551Z,37.81
2019-05-14T15:44:48.594Z,37.81
2019-05-14T15:47:14.589Z,35.65
2019-05-14T15:49:48.895Z,37.58
2019-05-14T15:52:21.912Z,37.58
2019-05-14T15:54:54.827Z,36.87
2019-05-14T15:57:28.888Z,36.95
2019-05-14T16:00:02.898Z,38.15
2019-05-14T16:02:38.623Z,38.28
2019-05-14T16:05:10.802Z,40.08
2019-05-14T16:07:43.696Z,39.80
2019-05-14T16:10:17.013Z,41.51
2019-05-14T16:12:50.238Z,43.22
2019-05-14T16:15:23.313Z,43.15
2019-05-14T16:18:08.177Z,43.15
2019-05-14T16:20:30.881Z,43.41
2019-05-14T16:23:03.830Z,43.72
2019-05-14T16:25:38.051Z,44.34
2019-05-14T16:28:11.158Z,45.06
2019-05-14T16:30:44.113Z,45.31
2019-05-14T16:33:18.510Z,46.65
2019-05-14T16:35:51.891Z,47.31
2019-05-14T16:38:24.753Z,47.31
2019-05-14T16:40:59.559Z,46.64
2019-05-14T16:43:32.887Z,47.11
2019-05-14T16:46:05.858Z,47.16
2019-05-14T16:48:39.684Z,47.56
2019-05-14T16:51:12.830Z,46.96
2019-05-14T16:53:45.726Z,47.08
2019-05-14T16:56:19.248Z,48.34
2019-05-14T16:58:52.596Z,48.33
2019-05-14T17:01:25.571Z,48.33
2019-05-14T17:03:59.619Z,48.97
2019-05-14T17:06:34.657Z,49.21
2019-05-14T17:09:08.815Z,48.52
2019-05-14T17:11:41.781Z,48.19
2019-05-14T17:14:14.934Z,48.78
2019-05-14T17:16:49.034Z,48.48
2019-05-14T17:19:22.120Z,48.85
2019-05-14T17:21:55.182Z,49.68
2019-05-14T17:24:29.153Z,49.82
2019-05-14T17:27:02.454Z,49.82
2019-05-14T17:29:35.614Z,51.76
2019-05-14T17:32:08.560Z,51.64
2019-05-14T17:34:41.387Z,51.01
2019-05-14T17:37:14.335Z,51.01
2019-05-14T17:39:49.009Z,52.30
2019-05-14T17:42:21.838Z,52.30
2019-05-14T17:44:54.674Z,52.33
2019-05-14T17:47:29.060Z,52.33
2019-05-14T17:50:02.434Z,53.56
2019-05-14T17:52:41.574Z,53.56
2019-05-14T17:55:12.780Z,55.16
2019-05-14T17:57:55.008Z,55.07
2019-05-14T18:00:20.863Z,54.82
2019-05-14T18:02:53.806Z,54.48
2019-05-14T18:05:29.105Z,55.71
2019-05-14T18:08:01.589Z,54.61
2019-05-14T18:10:34.717Z,54.47
2019-05-14T18:13:09.296Z,54.47
2019-05-14T18:15:42.603Z,55.07
2019-05-14T18:18:18.332Z,55.99
2019-05-14T18:20:50.464Z,56.32
2019-05-14T18:23:23.676Z,56.62
2019-05-14T18:26:04.876Z,56.16
2019-05-14T18:28:31.558Z,58.36
2019-05-14T18:31:04.558Z,58.16
2019-05-14T18:33:39.757Z,58.16
2019-05-14T18:36:12.208Z,58.73
2019-05-14T18:38:45.218Z,58.72
2019-05-14T18:41:18.955Z,58.66
2019-05-14T18:43:52.229Z,59.27
2019-05-14T18:46:25.066Z,59.27
2019-05-14T18:48:59.195Z,60.56
2019-05-14T18:51:32.420Z,60.56
2019-05-14T18:54:05.288Z,60.64
2019-05-14T18:56:38.560Z,61.72
2019-05-14T18:59:11.796Z,61.75
2019-05-14T19:01:48.897Z,61.75
2019-05-14T19:04:22.700Z,61.94
2019-05-14T19:06:55.624Z,63.69
2019-05-14T19:09:29.497Z,64.49
2019-05-14T19:12:02.634Z,64.65
2019-05-14T19:14:35.785Z,64.65
2019-05-14T19:17:09.237Z,65.71
2019-05-14T19:19:42.352Z,65.63
2019-05-14T19:22:15.349Z,66.74
2019-05-14T19:24:49.212Z,66.69
2019-05-14T19:27:22.162Z,66.69
2019-05-14T19:29:55.120Z,66.92
2019-05-14T19:32:28.578Z,68.33
2019-05-14T19:35:01.577Z,67.86
2019-05-14T19:37:34.728Z,67.86
2019-05-14T19:40:09.212Z,68.12
2019-05-14T19:42:42.403Z,68.12
2019-05-14T19:45:15.674Z,67.97
2019-05-14T19:47:49.387Z,67.62
2019-05-14T19:50:22.401Z,68.35
2019-05-14T19:52:55.575Z,68.35
2019-05-14T19:55:29.216Z,68.65
2019-05-14T19:58:02.256Z,69.34
2019-05-14T20:00:38.230Z,69.42
2019-05-14T20:03:11.098Z,69.62
2019-05-14T20:05:44.148Z,70.46
2019-05-14T20:08:18.989Z,70.59
2019-05-14T20:10:51.953Z,70.59
2019-05-14T20:13:24.921Z,70.60
2019-05-14T20:15:59.079Z,70.74
2019-05-14T20:18:32.295Z,71.44
2019-05-14T20:21:05.259Z,71.55
2019-05-14T20:23:38.855Z,71.42
2019-05-14T20:26:12.160Z,71.42
2019-05-14T20:28:45.212Z,71.79
2019-05-14T20:31:18.464Z,71.47
2019-05-14T20:33:51.996Z,72.48
2019-05-14T20:36:28.081Z,72.52
2019-05-14T20:39:00.803Z,72.52
2019-05-14T20:41:33.693Z,72.92
2019-05-14T20:44:06.644Z,72.92
2019-05-14T20:46:39.641Z,73.28
2019-05-14T20:49:12.913Z,74.23
2019-05-14T20:51:45.818Z,74.23
2019-05-14T20:54:18.810Z,74.38
2019-05-14T20:56:51.975Z,74.29
2019-05-14T20:59:24.990Z,75.94
2019-05-14T21:01:58.904Z,75.94
2019-05-14T21:04:32.116Z,76.30
2019-05-14T21:07:05.326Z,76.30
2019-05-14T21:09:38.844Z,76.47
2019-05-14T21:12:12.135Z,76.47
2019-05-14T21:14:45.089Z,77.53
2019-05-14T21:17:19.294Z,77.53
2019-05-14T21:19:52.484Z,77.20
2019-05-14T21:22:28.857Z,77.50
2019-05-14T21:25:01.311Z,78.21
2019-05-14T21:27:43.924Z,78.67
2019-05-14T21:30:09.986Z,78.46
2019-05-14T21:32:43.117Z,78.46
2019-05-14T21:35:20.819Z,78.77
2019-05-14T21:37:52.410Z,78.84
2019-05-14T21:40:25.332Z,78.84
2019-05-14T21:42:58.658Z,78.81
2019-05-14T21:45:31.585Z,78.75
2019-05-14T21:48:04.718Z,79.01
2019-05-14T21:50:38.813Z,79.01
2019-05-14T21:53:12.032Z,78.96
2019-05-14T21:55:45.299Z,78.94
2019-05-14T21:58:19.566Z,78.94
2019-05-14T22:00:54.711Z,79.33
2019-05-14T22:03:28.857Z,79.33
2019-05-14T22:06:01.803Z,79.15
2019-05-14T22:08:35.250Z,79.57
2019-05-14T22:11:08.340Z,80.08
2019-05-14T22:13:41.385Z,79.90
2019-05-14T22:16:14.343Z,80.33
2019-05-14T22:18:48.396Z,80.24
2019-05-14T22:21:21.762Z,80.48
2019-05-14T22:23:54.750Z,80.48
2019-05-14T22:26:28.373Z,80.80
2019-05-14T22:29:01.592Z,80.83
2019-05-14T22:31:34.592Z,80.94
2019-05-14T22:34:08.852Z,81.18
2019-05-14T22:36:42.017Z,80.94
2019-05-14T22:39:14.945Z,81.05
2019-05-14T22:41:47.905Z,81.28
2019-05-14T22:44:20.867Z,81.81
2019-05-14T22:46:53.850Z,81.97
2019-05-14T22:49:28.432Z,81.65
2019-05-14T22:52:01.594Z,81.87
2019-05-14T22:54:34.717Z,81.96
2019-05-14T22:57:07.724Z,81.71
2019-05-14T22:59:40.683Z,81.75
2019-05-14T23:02:13.690Z,81.83
2019-05-14T23:04:46.671Z,81.82
2019-05-14T23:07:19.641Z,81.82
2019-05-14T23:09:52.607Z,81.75
2019-05-14T23:12:25.572Z,82.28
2019-05-14T23:14:58.662Z,82.50
2019-05-14T23:17:31.617Z,82.96
2019-05-14T23:20:05.089Z,82.93
2019-05-14T23:22:39.279Z,83.18
2019-05-14T23:25:12.614Z,83.29
2019-05-14T23:27:48.117Z,84.18
2019-05-14T23:30:31.953Z,83.58
2019-05-14T23:33:05.356Z,84.01
2019-05-14T23:35:39.159Z,83.70
2019-05-14T23:38:14.480Z,84.00
2019-05-14T23:40:49.392Z,84.09
2019-05-14T23:43:22.186Z,84.10
2019-05-14T23:45:55.250Z,83.94
2019-05-14T23:48:28.211Z,84.03
2019-05-14T23:51:01.196Z,84.27
2019-05-14T23:53:34.189Z,84.16
2019-05-14T23:56:08.578Z,84.09
2019-05-14T23:58:54.224Z,84.00
